KPPA

Perry Lefors Field Airport

Pampa, Texas, USA
METAR KPPA 191455Z AUTO 21010KT 10SM CLR 01/M10 A2992 RMK AO2 T00091100
Observed Flight Rules
Jan-19 @ 14:55 UTC (35 minutes ago) Visual Flight Rules
Wind Visibility Clouds
210° at 10 knots 10 miles
  • Clear skies
Temperatures Readings
Current 1°C / 34°F
Dewpoint -10°C / 14°F
Humidity 44%
Altimeter 29.92" Hg
Pressure 1013 hPa
Elevation 989
METAR KPPA 191455Z AUTO 21010KT 10SM CLR 01/M10 A2992 RMK AO2 T00091100
Observed Flight Rules
Jan-19 @ 14:55 UTC
(35 minutes ago)
VFR
Wind Visibility
210° at 10 knots 10 miles
Clouds
  • Clear skies
Temperature Dewpoint
1°C / 34°F -10°C / 14°F
Humidity Altimeter Pressure
44% 29.92" Hg 1013 hPa